createdAt,value
2023-03-28T00:00:17.239Z,1.63
2023-03-28T00:02:18.841Z,1.70
2023-03-28T00:04:23.076Z,1.40
2023-03-28T00:06:26.246Z,1.38
2023-03-28T00:08:31.169Z,1.33
2023-03-28T00:10:32.844Z,1.80
2023-03-28T00:12:34.436Z,1.75
2023-03-28T00:14:37.642Z,1.75
2023-03-28T00:16:40.837Z,1.50
2023-03-28T00:18:43.026Z,1.60
2023-03-28T00:20:44.558Z,1.83
2023-03-28T00:22:46.102Z,2.00
2023-03-28T00:24:48.800Z,2.00
2023-03-28T00:26:54.173Z,2.00
2023-03-28T00:28:57.064Z,1.90
2023-03-28T00:31:08.347Z,1.70
2023-03-28T00:33:09.961Z,2.05
2023-03-28T00:35:12.626Z,1.90
2023-03-28T00:37:17.445Z,1.95
2023-03-28T00:39:19.380Z,1.90
2023-03-28T00:41:22.043Z,2.08
2023-03-28T00:43:42.430Z,1.90
2023-03-28T00:45:47.253Z,2.10
2023-03-28T00:47:58.760Z,1.88
2023-03-28T00:50:07.310Z,2.08
2023-03-28T00:52:13.915Z,1.40
2023-03-28T00:54:19.802Z,1.73
2023-03-28T00:56:24.402Z,2.10
2023-03-28T00:58:30.935Z,1.90
2023-03-28T01:00:34.691Z,1.95
2023-03-28T01:02:36.622Z,1.80
2023-03-28T01:04:54.491Z,2.20
2023-03-28T01:06:58.784Z,1.95
2023-03-28T01:09:04.502Z,1.55
2023-03-28T01:11:06.743Z,1.60
2023-03-28T01:13:10.445Z,1.40
2023-03-28T01:15:12.226Z,1.73
2023-03-28T01:17:25.537Z,1.55
2023-03-28T01:19:58.795Z,1.77
2023-03-28T01:22:13.829Z,1.42
2023-03-28T01:24:46.064Z,1.77
2023-03-28T01:26:59.773Z,2.15
2023-03-28T01:29:17.362Z,1.73
2023-03-28T01:31:51.529Z,1.42
2023-03-28T01:34:12.971Z,2.85
2023-03-28T01:36:40.980Z,1.70
2023-03-28T01:39:01.054Z,2.70
2023-03-28T01:41:40.455Z,2.03
2023-03-28T01:43:52.755Z,2.13
2023-03-28T01:46:26.716Z,2.25
2023-03-28T01:49:05.932Z,2.15
2023-03-28T01:51:14.842Z,1.73
2023-03-28T01:53:25.320Z,2.30
2023-03-28T01:55:41.531Z,1.70
2023-03-28T01:57:52.869Z,1.95
2023-03-28T02:00:00.328Z,1.63
2023-03-28T02:02:11.422Z,1.73
2023-03-28T02:04:21.444Z,1.90
2023-03-28T02:06:35.982Z,2.10
2023-03-28T02:08:41.896Z,1.65
2023-03-28T02:10:54.781Z,2.15
2023-03-28T02:13:25.550Z,2.10
2023-03-28T02:15:35.509Z,1.90
2023-03-28T02:18:03.022Z,2.45
2023-03-28T02:20:19.340Z,1.77
2023-03-28T02:25:20.689Z,1.80
2023-03-28T02:27:31.049Z,2.22
2023-03-28T02:29:42.286Z,2.22
2023-03-28T02:31:50.664Z,2.60
2023-03-28T02:33:53.502Z,1.98
2023-03-28T02:36:08.362Z,2.30
2023-03-28T02:38:18.707Z,2.05
2023-03-28T02:40:37.194Z,1.80
2023-03-28T02:42:59.413Z,2.13
2023-03-28T02:45:40.323Z,1.92
2023-03-28T02:48:01.199Z,2.58
2023-03-28T02:50:34.615Z,2.10
2023-03-28T02:52:51.769Z,2.30
2023-03-28T02:55:03.734Z,2.40
2023-03-28T02:57:45.615Z,2.95
2023-03-28T03:00:05.207Z,2.85
2023-03-28T03:02:08.322Z,1.95
2023-03-28T03:04:10.110Z,2.67
2023-03-28T03:06:12.596Z,2.05
2023-03-28T03:08:14.850Z,2.47
2023-03-28T03:10:17.095Z,2.78
2023-03-28T03:12:21.212Z,2.50
2023-03-28T03:14:23.132Z,2.40
2023-03-28T03:16:29.154Z,2.03
2023-03-28T03:18:32.414Z,2.58
2023-03-28T03:20:34.162Z,2.13
2023-03-28T03:22:38.068Z,2.38
2023-03-28T03:24:39.984Z,2.25
2023-03-28T03:26:41.846Z,2.38
2023-03-28T03:28:49.496Z,2.60
2023-03-28T03:30:53.348Z,2.60
2023-03-28T03:33:20.934Z,2.45
2023-03-28T03:35:33.348Z,2.30
2023-03-28T03:37:39.011Z,2.63
2023-03-28T03:39:40.572Z,2.42
2023-03-28T03:41:42.136Z,3.22
2023-03-28T03:43:46.641Z,3.15
2023-03-28T03:45:48.815Z,2.70
2023-03-28T03:47:50.546Z,2.40
2023-03-28T03:49:52.203Z,2.88
2023-03-28T03:51:53.930Z,2.58
2023-03-28T03:53:58.072Z,2.42
2023-03-28T03:56:07.677Z,1.85
2023-03-28T03:58:26.119Z,2.60
2023-03-28T04:00:28.588Z,2.25
2023-03-28T04:02:30.262Z,2.33
2023-03-28T04:04:34.920Z,1.98
2023-03-28T04:06:45.770Z,2.40
2023-03-28T04:08:47.643Z,2.75
2023-03-28T04:10:56.843Z,2.50
2023-03-28T04:12:58.482Z,2.42
2023-03-28T04:15:00.327Z,2.22
2023-03-28T04:17:23.296Z,2.05
2023-03-28T04:19:25.646Z,2.20
2023-03-28T04:21:30.257Z,2.22
2023-03-28T04:23:38.696Z,2.20
2023-03-28T04:25:41.648Z,2.70
2023-03-28T04:27:55.745Z,2.72
2023-03-28T04:30:02.639Z,2.08
2023-03-28T04:32:24.310Z,2.38
2023-03-28T04:34:39.089Z,2.25
2023-03-28T04:36:43.749Z,2.90
2023-03-28T04:38:49.154Z,3.33
2023-03-28T04:41:10.692Z,2.25
2023-03-28T04:43:31.964Z,1.88
2023-03-28T04:45:33.622Z,2.30
2023-03-28T04:47:45.902Z,2.63
2023-03-28T04:49:52.557Z,2.40
2023-03-28T04:51:54.073Z,2.50
2023-03-28T04:53:55.619Z,3.03
2023-03-28T04:56:23.476Z,2.63
2023-03-28T04:58:25.613Z,3.20
2023-03-28T05:00:27.621Z,2.30
2023-03-28T05:02:55.984Z,2.78
2023-03-28T05:04:58.139Z,2.50
2023-03-28T05:06:59.799Z,2.92
2023-03-28T05:09:01.704Z,2.45
2023-03-28T05:11:04.771Z,2.72
2023-03-28T05:13:06.735Z,2.65
2023-03-28T05:15:21.171Z,2.78
2023-03-28T05:17:35.756Z,2.08
2023-03-28T05:19:42.473Z,2.70
2023-03-28T05:21:49.319Z,3.13
2023-03-28T05:23:52.153Z,3.00
2023-03-28T05:25:58.845Z,2.97
2023-03-28T05:28:04.386Z,2.58
2023-03-28T05:30:09.685Z,2.97
2023-03-28T05:32:12.807Z,2.85
2023-03-28T05:34:15.734Z,2.45
2023-03-28T05:36:20.762Z,2.95
2023-03-28T05:38:22.487Z,2.70
2023-03-28T05:40:29.195Z,2.50
2023-03-28T05:42:31.093Z,2.25
2023-03-28T05:44:32.771Z,2.58
2023-03-28T05:46:57.491Z,2.75
2023-03-28T05:48:59.143Z,2.50
2023-03-28T05:51:01.106Z,2.58
2023-03-28T05:53:02.981Z,2.88
2023-03-28T05:55:05.321Z,2.60
2023-03-28T05:57:06.983Z,3.13
2023-03-28T05:59:08.782Z,2.95
2023-03-28T06:01:12.761Z,3.28
2023-03-28T06:03:16.338Z,3.17
2023-03-28T06:05:18.933Z,3.00
2023-03-28T06:07:35.206Z,3.20
2023-03-28T06:09:42.768Z,3.30
2023-03-28T06:13:47.043Z,3.85
2023-03-28T06:15:49.301Z,3.70
2023-03-28T06:17:52.792Z,3.55
2023-03-28T06:19:54.640Z,3.33
2023-03-28T06:21:56.283Z,4.10
2023-03-28T06:23:57.970Z,3.90
2023-03-28T06:26:05.339Z,4.28
2023-03-28T06:28:13.048Z,4.07
2023-03-28T06:30:34.647Z,4.00
2023-03-28T06:32:36.932Z,3.53
2023-03-28T06:34:38.986Z,4.00
2023-03-28T06:36:40.751Z,3.42
2023-03-28T06:38:42.778Z,4.18
2023-03-28T06:40:45.670Z,4.55
2023-03-28T06:42:47.210Z,4.22
2023-03-28T06:44:57.854Z,3.83
2023-03-28T06:47:10.475Z,3.83
2023-03-28T06:49:12.101Z,4.10
2023-03-28T06:51:32.624Z,3.80
2023-03-28T06:53:36.041Z,3.65
2023-03-28T06:55:38.230Z,3.60
2023-03-28T06:57:40.197Z,4.25
2023-03-28T07:00:07.187Z,3.20
2023-03-28T07:02:28.946Z,4.57
2023-03-28T07:04:35.801Z,4.45
2023-03-28T07:06:38.566Z,3.83
2023-03-28T07:08:40.280Z,4.38
2023-03-28T07:10:41.974Z,3.88
2023-03-28T07:12:44.525Z,3.75
2023-03-28T07:14:47.625Z,4.00
2023-03-28T07:16:49.364Z,4.55
2023-03-28T07:18:50.988Z,4.15
2023-03-28T07:21:06.937Z,3.47
2023-03-28T07:23:08.790Z,4.13
2023-03-28T07:25:10.518Z,3.95
2023-03-28T07:27:16.272Z,4.03
2023-03-28T07:29:19.709Z,3.58
2023-03-28T07:31:21.692Z,3.83
2023-03-28T07:33:29.784Z,3.65
2023-03-28T07:35:40.258Z,3.33
2023-03-28T07:37:47.194Z,2.90
2023-03-28T07:40:06.100Z,4.03
2023-03-28T07:42:11.040Z,3.35
2023-03-28T07:44:12.745Z,2.92
2023-03-28T07:46:16.000Z,3.85
2023-03-28T07:48:17.682Z,3.00
2023-03-28T07:50:19.877Z,3.28
2023-03-28T07:52:21.627Z,2.90
2023-03-28T07:54:24.317Z,3.22
2023-03-28T07:56:27.016Z,2.95
2023-03-28T07:58:42.976Z,4.07
2023-03-28T08:00:45.922Z,3.85
2023-03-28T08:02:59.637Z,2.80
2023-03-28T08:05:01.464Z,2.80
2023-03-28T08:07:03.213Z,2.78
2023-03-28T08:09:09.291Z,2.80
2023-03-28T08:11:16.328Z,2.42
2023-03-28T08:13:20.851Z,2.83
2023-03-28T08:15:23.016Z,2.70
2023-03-28T08:17:24.701Z,2.25
2023-03-28T08:21:44.412Z,2.28
2023-03-28T08:23:46.068Z,2.42
2023-03-28T08:26:07.162Z,2.38
2023-03-28T08:28:11.301Z,2.05
2023-03-28T08:30:13.509Z,1.95
2023-03-28T08:32:24.085Z,2.35
2023-03-28T08:34:25.889Z,2.03
2023-03-28T08:36:31.183Z,2.00
2023-03-28T08:38:33.167Z,2.20
2023-03-28T08:40:40.282Z,2.22
2023-03-28T08:43:06.475Z,2.50
2023-03-28T08:45:23.320Z,1.65
2023-03-28T08:47:27.569Z,1.90
2023-03-28T08:49:34.223Z,1.73
2023-03-28T08:51:51.472Z,1.80
2023-03-28T08:54:08.682Z,2.20
2023-03-28T08:56:13.960Z,1.50
2023-03-28T08:58:21.303Z,1.52
2023-03-28T09:00:28.448Z,1.85
2023-03-28T09:02:31.516Z,1.58
2023-03-28T09:04:37.110Z,1.63
2023-03-28T09:06:49.493Z,1.70
2023-03-28T09:09:10.285Z,1.50
2023-03-28T09:11:25.025Z,1.20
2023-03-28T09:13:29.477Z,1.10
2023-03-28T09:15:54.728Z,1.25
2023-03-28T09:18:07.173Z,1.83
2023-03-28T09:20:23.985Z,1.50
2023-03-28T09:22:42.621Z,1.02
2023-03-28T09:25:07.202Z,1.60
2023-03-28T09:27:37.869Z,0.93
2023-03-28T09:29:43.145Z,1.58
2023-03-28T09:31:50.940Z,2.00
2023-03-28T09:33:55.756Z,1.60
2023-03-28T09:36:12.053Z,1.20
2023-03-28T09:38:25.680Z,1.42
2023-03-28T09:40:32.817Z,1.45
2023-03-28T09:43:18.652Z,1.80
2023-03-28T09:45:36.018Z,1.00
2023-03-28T09:47:56.976Z,1.92
2023-03-28T09:50:11.773Z,1.45
2023-03-28T09:52:18.315Z,1.42
2023-03-28T09:54:28.703Z,1.00
2023-03-28T09:56:36.703Z,1.08
2023-03-28T09:59:01.738Z,1.48
2023-03-28T10:01:38.391Z,1.20
2023-03-28T10:04:00.076Z,1.50
2023-03-28T10:06:27.686Z,1.73
2023-03-28T10:08:39.987Z,1.38
2023-03-28T10:11:16.338Z,1.00
2023-03-28T10:13:18.831Z,1.00
2023-03-28T10:15:32.908Z,1.25
2023-03-28T10:17:52.892Z,1.30
2023-03-28T10:20:04.845Z,1.05
2023-03-28T10:22:20.733Z,0.90
2023-03-28T10:24:25.037Z,0.85
2023-03-28T10:26:30.829Z,1.00
2023-03-28T10:28:36.853Z,0.90
2023-03-28T10:30:40.090Z,1.05
2023-03-28T10:32:41.747Z,1.42
2023-03-28T10:35:26.243Z,1.50
2023-03-28T10:37:48.353Z,1.20
2023-03-28T10:40:23.892Z,1.08
2023-03-28T10:42:52.112Z,1.35
2023-03-28T10:45:41.937Z,1.13
2023-03-28T10:47:49.278Z,1.30
2023-03-28T10:49:53.719Z,1.48
2023-03-28T10:51:56.530Z,1.50
2023-03-28T10:54:09.688Z,1.08
2023-03-28T10:56:30.363Z,1.00
2023-03-28T10:58:31.890Z,1.02
2023-03-28T11:00:43.567Z,1.58
2023-03-28T11:03:24.185Z,1.77
2023-03-28T11:06:10.058Z,1.10
2023-03-28T11:08:36.709Z,1.30
2023-03-28T11:11:13.825Z,1.75
2023-03-28T11:13:26.459Z,1.30
2023-03-28T11:15:39.472Z,1.00
2023-03-28T11:18:27.527Z,1.40
2023-03-28T11:20:43.800Z,1.25
2023-03-28T11:23:38.134Z,1.35
2023-03-28T11:26:52.938Z,1.20
2023-03-28T11:29:43.879Z,1.20
2023-03-28T11:32:10.121Z,1.52
2023-03-28T11:34:18.170Z,1.10
2023-03-28T11:36:29.529Z,1.80
2023-03-28T11:38:37.011Z,1.20
2023-03-28T11:41:10.330Z,2.08
2023-03-28T11:43:46.740Z,1.48
2023-03-28T11:45:55.344Z,1.70
2023-03-28T11:48:05.919Z,1.80
2023-03-28T11:50:38.596Z,1.55
2023-03-28T11:52:52.430Z,1.52
2023-03-28T11:55:22.010Z,1.75
2023-03-28T11:57:29.820Z,2.08
2023-03-28T11:59:59.822Z,1.58
2023-03-28T12:02:36.251Z,1.30
2023-03-28T12:04:48.800Z,1.40
2023-03-28T12:07:02.363Z,1.73
2023-03-28T12:09:16.161Z,1.20
2023-03-28T12:11:29.734Z,1.20
2023-03-28T12:14:04.971Z,1.20
2023-03-28T12:16:23.796Z,1.42
2023-03-28T12:18:32.340Z,1.55
2023-03-28T12:21:00.609Z,1.17
2023-03-28T12:23:23.758Z,1.33
2023-03-28T12:26:36.730Z,1.45
2023-03-28T12:28:43.688Z,1.15
2023-03-28T12:31:12.780Z,1.40
2023-03-28T12:33:27.237Z,1.60
2023-03-28T12:35:47.148Z,1.20
2023-03-28T12:38:15.395Z,2.08
2023-03-28T12:40:25.736Z,1.70
2023-03-28T12:42:28.497Z,1.40
2023-03-28T12:44:58.768Z,1.30
2023-03-28T12:47:18.736Z,1.00
2023-03-28T12:49:33.352Z,1.05
2023-03-28T12:51:47.032Z,1.27
2023-03-28T12:54:21.365Z,1.20
2023-03-28T12:56:22.920Z,1.40
2023-03-28T12:58:35.961Z,1.20
2023-03-28T13:00:53.187Z,1.33
2023-03-28T13:03:23.405Z,0.95
2023-03-28T13:05:45.322Z,1.05
2023-03-28T13:08:00.362Z,1.30
2023-03-28T13:10:44.096Z,1.13
2023-03-28T13:13:16.675Z,1.52
2023-03-28T13:17:27.985Z,1.10
2023-03-28T13:19:55.923Z,1.20
2023-03-28T13:21:58.186Z,1.33
2023-03-28T13:24:00.805Z,1.30
2023-03-28T13:26:05.418Z,1.35
2023-03-28T13:28:13.153Z,1.10
2023-03-28T13:30:18.678Z,0.80
2023-03-28T13:32:25.062Z,1.20
2023-03-28T13:34:33.707Z,1.15
2023-03-28T13:36:35.886Z,1.15
2023-03-28T13:39:09.774Z,1.25
2023-03-28T13:41:32.571Z,1.20
2023-03-28T13:43:48.146Z,1.13
2023-03-28T13:45:51.561Z,1.10
2023-03-28T13:48:06.202Z,1.52
2023-03-28T13:50:34.254Z,1.00
2023-03-28T13:52:36.008Z,1.20
2023-03-28T13:54:38.224Z,0.95
2023-03-28T13:56:46.790Z,1.15
2023-03-28T13:58:50.694Z,1.67
2023-03-28T14:01:07.374Z,1.38
2023-03-28T14:03:14.775Z,1.10
2023-03-28T14:05:27.828Z,1.05
2023-03-28T14:07:30.186Z,0.95
2023-03-28T14:11:37.880Z,1.00
2023-03-28T14:13:39.636Z,1.10
2023-03-28T14:15:44.090Z,0.98
2023-03-28T14:17:45.701Z,1.30
2023-03-28T14:19:53.731Z,2.10
2023-03-28T14:21:55.656Z,1.67
2023-03-28T14:24:04.622Z,1.40
2023-03-28T14:26:15.702Z,1.02
2023-03-28T14:28:18.309Z,1.40
2023-03-28T14:30:28.664Z,1.40
2023-03-28T14:32:37.825Z,1.23
2023-03-28T14:34:45.152Z,1.60
2023-03-28T14:37:00.853Z,1.60
2023-03-28T14:39:13.316Z,1.40
2023-03-28T14:41:28.277Z,1.30
2023-03-28T14:43:31.697Z,1.30
2023-03-28T14:45:37.962Z,1.23
2023-03-28T14:47:40.781Z,1.30
2023-03-28T14:49:43.255Z,1.20
2023-03-28T14:53:56.016Z,1.30
2023-03-28T14:56:05.354Z,1.30
2023-03-28T14:58:12.467Z,1.85
2023-03-28T15:00:19.221Z,1.20
2023-03-28T15:02:36.336Z,1.08
2023-03-28T15:04:41.487Z,1.30
2023-03-28T15:06:43.090Z,1.35
2023-03-28T15:08:45.732Z,1.85
2023-03-28T15:10:53.050Z,1.40
2023-03-28T15:13:05.498Z,1.67
2023-03-28T15:15:15.402Z,0.98
2023-03-28T15:17:22.233Z,1.30
2023-03-28T15:19:28.723Z,1.10
2023-03-28T15:21:30.338Z,1.00
2023-03-28T15:23:38.414Z,1.00
2023-03-28T15:25:43.635Z,1.45
2023-03-28T15:27:56.661Z,1.27
2023-03-28T15:30:12.235Z,1.17
2023-03-28T15:32:17.375Z,1.08
2023-03-28T15:34:26.212Z,1.20
2023-03-28T15:36:37.155Z,1.50
2023-03-28T15:38:41.123Z,1.20
2023-03-28T15:40:45.925Z,1.45
2023-03-28T15:42:49.805Z,1.52
2023-03-28T15:44:57.271Z,1.60
2023-03-28T15:47:03.299Z,1.40
2023-03-28T15:49:06.711Z,0.98
2023-03-28T15:51:18.493Z,1.10
2023-03-28T15:53:21.801Z,1.02
2023-03-28T15:55:26.164Z,1.10
2023-03-28T15:57:30.510Z,1.30
2023-03-28T15:59:42.318Z,1.02
2023-03-28T16:01:44.399Z,1.50
2023-03-28T16:03:46.457Z,1.45
2023-03-28T16:05:50.352Z,1.58
2023-03-28T16:07:52.139Z,1.20
2023-03-28T16:09:53.855Z,1.10
2023-03-28T16:12:02.005Z,1.40
2023-03-28T16:14:20.529Z,1.10
2023-03-28T16:16:53.003Z,1.50
2023-03-28T16:19:01.906Z,1.02
2023-03-28T16:21:04.226Z,0.73
2023-03-28T16:23:06.675Z,1.00
2023-03-28T16:25:08.724Z,1.17
2023-03-28T16:27:10.360Z,1.00
2023-03-28T16:29:12.471Z,0.98
2023-03-28T16:31:15.436Z,1.13
2023-03-28T16:33:17.276Z,1.10
2023-03-28T16:35:18.888Z,1.10
2023-03-28T16:37:21.741Z,1.20
2023-03-28T16:39:24.259Z,1.00
2023-03-28T16:41:26.531Z,0.90
2023-03-28T16:43:28.149Z,1.17
2023-03-28T16:45:30.696Z,0.75
2023-03-28T16:47:32.262Z,0.90
2023-03-28T16:49:35.974Z,0.77
2023-03-28T16:51:38.192Z,0.85
2023-03-28T16:53:40.655Z,0.85
2023-03-28T16:57:51.684Z,1.20
2023-03-28T16:59:56.630Z,1.15
2023-03-28T17:01:58.171Z,1.30
2023-03-28T17:04:00.176Z,1.10
2023-03-28T17:06:08.051Z,1.00
2023-03-28T17:08:10.128Z,1.00
2023-03-28T17:10:12.445Z,0.77
2023-03-28T17:12:14.309Z,1.10
2023-03-28T17:14:16.172Z,1.00
2023-03-28T17:16:17.815Z,0.90
2023-03-28T17:18:19.428Z,0.88
2023-03-28T17:20:21.256Z,0.88
2023-03-28T17:22:22.798Z,0.90
2023-03-28T17:24:24.405Z,0.90
2023-03-28T17:26:26.232Z,1.20
2023-03-28T17:28:28.890Z,1.00
2023-03-28T17:32:32.817Z,1.02
2023-03-28T17:34:35.748Z,1.10
2023-03-28T17:36:37.495Z,1.10
2023-03-28T17:38:39.126Z,1.00
2023-03-28T17:40:46.558Z,1.00
2023-03-28T17:42:48.222Z,1.42
2023-03-28T17:44:49.743Z,1.30
2023-03-28T17:46:51.914Z,1.27
2023-03-28T17:48:53.788Z,1.00
2023-03-28T17:50:55.654Z,1.30
2023-03-28T17:52:57.458Z,1.20
2023-03-28T17:54:59.109Z,0.90
2023-03-28T17:57:01.171Z,0.90
2023-03-28T17:59:02.721Z,0.90
2023-03-28T18:01:24.612Z,1.10
2023-03-28T18:03:27.718Z,1.20
2023-03-28T18:05:42.074Z,1.05
2023-03-28T18:07:43.842Z,1.10
2023-03-28T18:09:46.204Z,1.52
2023-03-28T18:11:48.238Z,1.42
2023-03-28T18:13:52.535Z,1.70
2023-03-28T18:15:54.183Z,1.70
2023-03-28T18:17:56.590Z,1.80
2023-03-28T18:19:58.966Z,1.42
2023-03-28T18:22:03.019Z,1.33
2023-03-28T18:24:04.628Z,1.17
2023-03-28T18:26:06.773Z,1.50
2023-03-28T18:28:08.552Z,1.48
2023-03-28T18:30:10.489Z,2.08
2023-03-28T18:32:12.260Z,2.20
2023-03-28T18:34:14.020Z,2.65
2023-03-28T18:36:15.923Z,2.60
2023-03-28T18:38:17.666Z,3.70
2023-03-28T18:40:19.381Z,3.45
2023-03-28T18:42:20.972Z,2.70
2023-03-28T18:44:22.466Z,2.88
2023-03-28T18:46:32.357Z,3.45
2023-03-28T18:48:34.448Z,4.30
2023-03-28T18:50:38.750Z,4.18
2023-03-28T18:52:40.702Z,4.90
2023-03-28T18:54:45.913Z,5.45
2023-03-28T18:56:48.144Z,6.45
2023-03-28T18:58:50.357Z,6.57
2023-03-28T19:00:58.257Z,6.88
2023-03-28T19:02:59.954Z,5.60
2023-03-28T19:05:01.598Z,2.65
2023-03-28T19:07:03.464Z,1.23
2023-03-28T19:09:05.205Z,1.33
2023-03-28T19:11:10.252Z,1.60
2023-03-28T19:13:12.031Z,1.48
2023-03-28T19:15:13.703Z,1.30
2023-03-28T19:17:15.178Z,1.20
2023-03-28T19:19:16.831Z,1.02
2023-03-28T19:21:18.577Z,1.33
2023-03-28T19:23:20.531Z,1.58
2023-03-28T19:25:22.146Z,1.17
2023-03-28T19:27:23.804Z,1.05
2023-03-28T19:29:25.554Z,1.02
2023-03-28T19:31:27.285Z,0.95
2023-03-28T19:33:29.552Z,1.13
2023-03-28T19:35:31.184Z,1.00
2023-03-28T19:37:32.874Z,1.10
2023-03-28T19:39:34.406Z,1.10
2023-03-28T19:41:35.972Z,1.23
2023-03-28T19:43:38.817Z,1.10
2023-03-28T19:45:43.709Z,1.13
2023-03-28T19:47:45.391Z,1.33
2023-03-28T19:49:47.088Z,1.42
2023-03-28T19:51:48.663Z,1.20
2023-03-28T19:53:50.144Z,1.60
2023-03-28T19:55:53.118Z,2.20
2023-03-28T19:57:58.238Z,2.00
2023-03-28T19:59:59.987Z,1.00
2023-03-28T20:02:01.951Z,1.02
2023-03-28T20:04:04.151Z,1.08
2023-03-28T20:06:12.959Z,1.27
2023-03-28T20:10:16.583Z,1.45
2023-03-28T20:12:18.997Z,1.05
2023-03-28T20:14:21.459Z,0.90
2023-03-28T20:16:23.257Z,1.00
2023-03-28T20:18:26.212Z,1.17
2023-03-28T20:20:27.860Z,0.90
2023-03-28T20:22:29.792Z,1.00
2023-03-28T20:24:39.626Z,1.27
2023-03-28T20:26:44.166Z,1.75
2023-03-28T20:28:49.945Z,1.05
2023-03-28T20:30:53.435Z,1.35
2023-03-28T20:32:55.278Z,1.60
2023-03-28T20:34:56.885Z,1.50
2023-03-28T20:36:59.742Z,1.05
2023-03-28T20:39:02.697Z,1.05
2023-03-28T20:41:11.470Z,1.15
2023-03-28T20:45:25.809Z,1.38
2023-03-28T20:47:28.887Z,1.10
2023-03-28T20:49:30.572Z,1.42
2023-03-28T20:51:32.687Z,1.38
2023-03-28T20:53:34.803Z,1.00
2023-03-28T20:55:36.658Z,1.05
2023-03-28T20:57:42.208Z,1.10
2023-03-28T20:59:43.900Z,2.03
2023-03-28T21:01:45.954Z,2.78
2023-03-28T21:03:50.247Z,3.40
2023-03-28T21:05:51.811Z,4.30
2023-03-28T21:07:54.159Z,4.03
2023-03-28T21:09:55.773Z,3.05
2023-03-28T21:11:57.416Z,2.45
2023-03-28T21:14:00.980Z,1.60
2023-03-28T21:16:02.629Z,1.30
2023-03-28T21:18:04.772Z,1.40
2023-03-28T21:20:09.170Z,2.55
2023-03-28T21:22:11.467Z,4.18
2023-03-28T21:24:12.989Z,1.30
2023-03-28T21:26:20.078Z,1.20
2023-03-28T21:28:21.729Z,1.42
2023-03-28T21:30:23.406Z,1.10
2023-03-28T21:32:25.071Z,1.15
2023-03-28T21:34:33.284Z,1.30
2023-03-28T21:36:34.974Z,1.65
2023-03-28T21:38:40.345Z,1.73
2023-03-28T21:40:42.005Z,1.67
2023-03-28T21:42:43.696Z,1.63
2023-03-28T21:44:45.228Z,1.70
2023-03-28T21:46:46.997Z,1.70
2023-03-28T21:48:48.751Z,1.55
2023-03-28T21:50:53.703Z,1.60
2023-03-28T21:52:55.249Z,1.80
2023-03-28T21:54:59.198Z,1.83
2023-03-28T21:57:00.907Z,1.40
2023-03-28T21:59:02.652Z,1.20
2023-03-28T22:01:05.134Z,1.38
2023-03-28T22:03:07.316Z,1.80
2023-03-28T22:05:18.958Z,1.85
2023-03-28T22:07:27.991Z,1.20
2023-03-28T22:09:29.745Z,1.60
2023-03-28T22:11:32.729Z,1.33
2023-03-28T22:13:34.477Z,1.55
2023-03-28T22:15:36.250Z,1.60
2023-03-28T22:17:40.556Z,1.10
2023-03-28T22:19:42.239Z,1.40
2023-03-28T22:21:44.449Z,1.50
2023-03-28T22:23:47.558Z,1.67
2023-03-28T22:25:49.700Z,1.80
2023-03-28T22:27:54.549Z,1.77
2023-03-28T22:29:59.969Z,1.80
2023-03-28T22:32:01.537Z,1.27
2023-03-28T22:34:03.176Z,1.60
2023-03-28T22:36:05.072Z,1.25
2023-03-28T22:38:06.791Z,1.10
2023-03-28T22:40:10.804Z,1.45
2023-03-28T22:42:13.066Z,1.75
2023-03-28T22:44:15.726Z,1.23
2023-03-28T22:46:17.502Z,1.50
2023-03-28T22:48:20.200Z,1.60
2023-03-28T22:50:22.524Z,1.33
2023-03-28T22:52:31.547Z,1.50
2023-03-28T22:54:35.026Z,1.70
2023-03-28T22:56:36.928Z,2.40
2023-03-28T22:58:38.880Z,1.70
2023-03-28T23:00:40.748Z,1.70
2023-03-28T23:02:42.372Z,2.05
2023-03-28T23:04:46.525Z,1.73
2023-03-28T23:06:50.187Z,1.85
2023-03-28T23:08:52.139Z,1.80
2023-03-28T23:10:53.760Z,1.95
2023-03-28T23:12:55.373Z,1.60
2023-03-28T23:14:57.171Z,1.83
2023-03-28T23:17:02.109Z,1.65
2023-03-28T23:19:06.239Z,1.35
2023-03-28T23:21:08.737Z,1.25
2023-03-28T23:23:11.946Z,1.50
2023-03-28T23:25:16.022Z,1.55
2023-03-28T23:27:19.119Z,1.50
2023-03-28T23:29:20.873Z,1.27
2023-03-28T23:31:22.580Z,1.58
2023-03-28T23:33:24.277Z,1.70
2023-03-28T23:35:29.078Z,2.42
2023-03-28T23:37:30.645Z,1.88
2023-03-28T23:39:32.297Z,1.58
2023-03-28T23:41:33.989Z,1.63
2023-03-28T23:43:35.719Z,1.55
2023-03-28T23:45:37.968Z,1.77
2023-03-28T23:47:39.638Z,1.63
2023-03-28T23:49:42.441Z,1.63
2023-03-28T23:53:45.627Z,1.40
2023-03-28T23:55:47.338Z,1.90
2023-03-28T23:57:49.252Z,2.38
2023-03-28T23:59:51.588Z,2.20
